createdAt,value
2022-10-28T00:01:08.854Z,26.17
2022-10-28T00:03:39.619Z,25.92
2022-10-28T00:06:10.977Z,24.65
2022-10-28T00:08:40.064Z,24.58
2022-10-28T00:11:10.726Z,24.33
2022-10-28T00:13:39.487Z,22.73
2022-10-28T00:16:11.686Z,23.90
2022-10-28T00:18:40.260Z,24.42
2022-10-28T00:21:10.588Z,24.25
2022-10-28T00:23:39.171Z,23.52
2022-10-28T00:26:09.340Z,24.08
2022-10-28T00:28:41.594Z,25.25
2022-10-28T00:31:13.266Z,24.50
2022-10-28T00:33:41.761Z,23.83
2022-10-28T00:36:11.946Z,23.48
2022-10-28T00:38:40.391Z,23.45
2022-10-28T00:41:09.615Z,23.25
2022-10-28T00:43:39.216Z,24.88
2022-10-28T00:46:16.634Z,24.42
2022-10-28T00:48:47.035Z,24.05
2022-10-28T00:51:15.789Z,23.98
2022-10-28T00:53:46.013Z,24.73
2022-10-28T00:56:14.452Z,25.42
2022-10-28T00:58:43.041Z,25.63
2022-10-28T01:01:11.466Z,25.42
2022-10-28T01:03:41.187Z,25.77
2022-10-28T01:06:09.945Z,25.05
2022-10-28T01:08:38.122Z,25.90
2022-10-28T01:11:26.947Z,24.77
2022-10-28T01:14:11.875Z,22.67
2022-10-28T01:16:45.062Z,25.27
2022-10-28T01:19:50.240Z,24.88
2022-10-28T01:22:22.218Z,23.92
2022-10-28T01:25:13.980Z,24.83
2022-10-28T01:28:08.896Z,29.33
2022-10-28T01:30:48.663Z,28.55
2022-10-28T01:33:23.295Z,29.38
2022-10-28T01:35:54.228Z,30.50
2022-10-28T01:38:30.041Z,27.45
2022-10-28T01:41:02.527Z,28.80
2022-10-28T01:43:33.603Z,30.17
2022-10-28T01:46:05.101Z,27.95
2022-10-28T01:48:38.852Z,28.40
2022-10-28T01:51:10.273Z,29.50
2022-10-28T01:53:41.824Z,30.63
2022-10-28T01:58:40.441Z,28.73
2022-10-28T02:01:10.782Z,31.13
2022-10-28T02:03:41.005Z,27.52
2022-10-28T02:06:16.265Z,25.92
2022-10-28T02:09:05.386Z,29.17
2022-10-28T02:11:45.575Z,32.95
2022-10-28T02:14:34.401Z,33.80
2022-10-28T02:17:06.693Z,30.73
2022-10-28T02:19:44.053Z,26.55
2022-10-28T02:22:18.710Z,24.48
2022-10-28T02:24:52.555Z,22.95
2022-10-28T02:27:26.908Z,22.95
2022-10-28T02:29:57.449Z,26.25
2022-10-28T02:32:27.169Z,27.35
2022-10-28T02:34:59.758Z,27.08
2022-10-28T02:37:29.478Z,26.90
2022-10-28T02:40:00.068Z,29.23
2022-10-28T02:42:29.954Z,30.97
2022-10-28T02:45:01.343Z,31.00
2022-10-28T02:47:32.780Z,29.42
2022-10-28T02:50:04.887Z,28.52
2022-10-28T02:52:34.827Z,26.40
2022-10-28T02:55:05.967Z,25.27
2022-10-28T02:57:37.474Z,24.13
2022-10-28T03:00:09.736Z,25.50
2022-10-28T03:02:38.099Z,25.77
2022-10-28T03:05:08.631Z,22.65
2022-10-28T03:07:36.659Z,25.08
2022-10-28T03:10:05.370Z,22.77
2022-10-28T03:12:33.809Z,23.02
2022-10-28T03:15:03.065Z,22.52
2022-10-28T03:17:31.414Z,27.15
2022-10-28T03:19:59.666Z,25.95
2022-10-28T03:22:29.285Z,22.75
2022-10-28T03:24:57.714Z,25.80
2022-10-28T03:27:25.871Z,22.90
2022-10-28T03:29:54.160Z,22.67
2022-10-28T03:34:55.629Z,22.27
2022-10-28T03:37:23.829Z,22.88
2022-10-28T03:39:53.439Z,22.45
2022-10-28T03:42:21.687Z,24.40
2022-10-28T03:44:50.035Z,23.25
2022-10-28T03:47:18.203Z,20.95
2022-10-28T03:49:46.578Z,20.88
2022-10-28T03:52:14.736Z,20.73
2022-10-28T03:54:43.303Z,17.77
2022-10-28T03:57:12.926Z,19.80
2022-10-28T03:59:43.467Z,18.67
2022-10-28T04:02:11.620Z,17.80
2022-10-28T04:04:40.129Z,16.30
2022-10-28T04:07:08.407Z,16.90
2022-10-28T04:09:36.856Z,19.90
2022-10-28T04:12:06.604Z,18.90
2022-10-28T04:14:36.514Z,17.98
2022-10-28T04:17:04.827Z,16.85
2022-10-28T04:19:35.615Z,15.95
2022-10-28T04:22:03.813Z,18.60
2022-10-28T04:24:32.822Z,18.27
2022-10-28T04:27:01.067Z,18.45
2022-10-28T04:29:29.631Z,17.30
2022-10-28T04:31:59.548Z,17.85
2022-10-28T04:34:27.936Z,16.67
2022-10-28T04:36:56.219Z,17.23
2022-10-28T04:39:25.081Z,16.10
2022-10-28T04:41:53.834Z,16.23
2022-10-28T04:44:22.304Z,13.93
2022-10-28T04:46:50.502Z,16.90
2022-10-28T04:49:20.376Z,15.88
2022-10-28T04:51:48.607Z,17.13
2022-10-28T04:54:16.914Z,14.70
2022-10-28T04:56:45.176Z,15.40
2022-10-28T04:59:13.709Z,15.95
2022-10-28T05:01:42.178Z,18.23
2022-10-28T05:04:10.584Z,18.55
2022-10-28T05:06:40.176Z,19.98
2022-10-28T05:09:08.434Z,19.52
2022-10-28T05:11:36.628Z,19.83
2022-10-28T05:14:05.116Z,20.27
2022-10-28T05:16:33.314Z,19.17
2022-10-28T05:19:01.741Z,17.67
2022-10-28T05:21:29.938Z,17.17
2022-10-28T05:23:59.580Z,17.88
2022-10-28T05:26:27.736Z,17.92
2022-10-28T05:28:56.098Z,19.50
2022-10-28T05:31:24.180Z,19.35
2022-10-28T05:33:52.621Z,21.70
2022-10-28T05:36:20.895Z,18.70
2022-10-28T05:38:49.775Z,20.95
2022-10-28T05:41:19.439Z,19.70
2022-10-28T05:43:47.820Z,21.67
2022-10-28T05:46:15.965Z,23.55
2022-10-28T05:48:44.276Z,23.02
2022-10-28T05:51:12.434Z,21.83
2022-10-28T05:53:42.116Z,17.90
2022-10-28T05:56:10.289Z,20.38
2022-10-28T05:58:40.090Z,20.52
2022-10-28T06:01:08.986Z,18.92
2022-10-28T06:03:37.517Z,20.83
2022-10-28T06:06:05.748Z,20.25
2022-10-28T06:08:34.180Z,20.17
2022-10-28T06:11:00.995Z,20.73
2022-10-28T06:13:29.579Z,16.40
2022-10-28T06:16:00.511Z,17.05
2022-10-28T06:18:28.923Z,15.55
2022-10-28T06:20:58.342Z,15.63
2022-10-28T06:23:27.767Z,15.07
2022-10-28T06:28:31.170Z,14.20
2022-10-28T06:31:03.765Z,14.82
2022-10-28T06:33:32.758Z,13.90
2022-10-28T06:36:01.492Z,16.13
2022-10-28T06:38:30.129Z,14.93
2022-10-28T06:40:58.931Z,18.20
2022-10-28T06:43:27.300Z,19.05
2022-10-28T06:45:56.087Z,11.98
2022-10-28T06:48:27.437Z,11.98
2022-10-28T06:50:56.363Z,12.15
2022-10-28T06:53:24.748Z,11.50
2022-10-28T06:55:57.411Z,12.80
2022-10-28T06:58:26.564Z,11.57
2022-10-28T07:00:56.862Z,11.18
2022-10-28T07:03:24.894Z,11.27
2022-10-28T07:05:56.274Z,11.23
2022-10-28T07:08:24.632Z,10.85
2022-10-28T07:10:56.893Z,11.02
2022-10-28T07:13:25.573Z,11.60
2022-10-28T07:15:53.922Z,10.35
2022-10-28T07:18:22.556Z,10.43
2022-10-28T07:20:53.931Z,10.30
2022-10-28T07:25:55.213Z,9.93
2022-10-28T07:28:23.857Z,9.27
2022-10-28T07:30:52.596Z,7.93
2022-10-28T07:33:21.255Z,8.95
2022-10-28T07:35:49.583Z,8.98
2022-10-28T07:38:17.989Z,8.95
2022-10-28T07:40:47.766Z,7.45
2022-10-28T07:43:15.992Z,7.82
2022-10-28T07:45:44.342Z,8.50
2022-10-28T07:48:12.487Z,8.55
2022-10-28T07:50:41.379Z,9.02
2022-10-28T07:53:09.675Z,8.80
2022-10-28T07:55:38.322Z,9.00
2022-10-28T07:58:08.045Z,9.02
2022-10-28T08:00:36.726Z,7.87
2022-10-28T08:03:04.940Z,7.85
2022-10-28T08:05:33.441Z,9.00
2022-10-28T08:08:01.806Z,7.88
2022-10-28T08:10:30.444Z,8.27
2022-10-28T08:12:59.002Z,8.00
2022-10-28T08:15:29.899Z,7.35
2022-10-28T08:17:58.048Z,8.23
2022-10-28T08:20:26.580Z,7.63
2022-10-28T08:22:55.008Z,6.80
2022-10-28T08:25:23.552Z,6.28
2022-10-28T08:27:51.650Z,6.38
2022-10-28T08:30:20.131Z,6.95
2022-10-28T08:32:49.810Z,5.95
2022-10-28T08:35:18.269Z,5.97
2022-10-28T08:37:52.681Z,5.38
2022-10-28T08:40:26.887Z,6.07
2022-10-28T08:42:57.995Z,6.15
2022-10-28T08:45:32.719Z,5.60
2022-10-28T08:48:14.317Z,5.60
2022-10-28T08:50:48.500Z,5.85
2022-10-28T08:53:19.594Z,5.97
2022-10-28T08:55:48.956Z,6.80
2022-10-28T08:58:21.172Z,7.45
2022-10-28T09:00:52.582Z,6.00
2022-10-28T09:03:23.808Z,6.00
2022-10-28T09:05:55.947Z,5.70
2022-10-28T09:08:25.671Z,5.93
2022-10-28T09:11:04.275Z,6.30
2022-10-28T09:13:45.362Z,7.03
2022-10-28T09:16:20.001Z,7.85
2022-10-28T09:19:05.117Z,6.82
2022-10-28T09:21:35.053Z,6.47
2022-10-28T09:24:08.418Z,6.83
2022-10-28T09:26:44.755Z,7.40
2022-10-28T09:29:34.742Z,7.70
2022-10-28T09:32:09.491Z,7.28
2022-10-28T09:34:43.649Z,7.85
2022-10-28T09:37:16.200Z,7.93
2022-10-28T09:39:45.696Z,6.43
2022-10-28T09:42:19.521Z,6.90
2022-10-28T09:44:51.205Z,7.15
2022-10-28T09:47:23.202Z,6.68
2022-10-28T09:49:55.205Z,7.05
2022-10-28T09:52:27.862Z,6.80
2022-10-28T09:54:56.473Z,6.50
2022-10-28T09:57:30.925Z,6.00
2022-10-28T10:00:00.646Z,5.10
2022-10-28T10:02:31.964Z,5.80
2022-10-28T10:05:03.481Z,5.25
2022-10-28T10:07:35.736Z,5.05
2022-10-28T10:10:07.613Z,4.38
2022-10-28T10:12:35.943Z,3.88
2022-10-28T10:15:07.345Z,4.55
2022-10-28T10:17:41.310Z,3.30
2022-10-28T10:20:12.848Z,3.65
2022-10-28T10:22:42.650Z,3.60
2022-10-28T10:25:31.873Z,4.38
2022-10-28T10:28:02.294Z,3.17
2022-10-28T10:30:33.301Z,3.78
2022-10-28T10:33:02.621Z,3.20
2022-10-28T10:35:36.754Z,3.35
2022-10-28T10:38:06.953Z,3.47
2022-10-28T10:40:36.688Z,3.72
2022-10-28T10:43:23.677Z,3.10
2022-10-28T10:45:54.107Z,3.17
2022-10-28T10:48:22.577Z,2.58
2022-10-28T10:50:52.550Z,3.40
2022-10-28T10:53:24.567Z,2.85
2022-10-28T10:55:55.827Z,3.33
2022-10-28T10:58:26.448Z,4.32
2022-10-28T11:00:57.029Z,3.80
2022-10-28T11:03:27.959Z,2.63
2022-10-28T11:08:46.433Z,3.00
2022-10-28T11:11:16.557Z,2.95
2022-10-28T11:13:46.406Z,3.08
2022-10-28T11:16:22.705Z,3.37
2022-10-28T11:18:55.256Z,2.80
2022-10-28T11:21:48.033Z,2.60
2022-10-28T11:24:32.257Z,2.00
2022-10-28T11:27:08.344Z,2.40
2022-10-28T11:29:37.679Z,2.30
2022-10-28T11:32:17.815Z,2.10
2022-10-28T11:37:39.938Z,2.58
2022-10-28T11:40:17.747Z,2.90
2022-10-28T11:42:52.436Z,2.83
2022-10-28T11:45:25.487Z,2.72
2022-10-28T11:48:12.760Z,2.65
2022-10-28T11:50:53.263Z,2.80
2022-10-28T11:53:59.933Z,2.13
2022-10-28T11:56:35.855Z,2.40
2022-10-28T11:59:27.811Z,2.78
2022-10-28T12:02:04.730Z,3.05
2022-10-28T12:04:42.095Z,2.63
2022-10-28T12:07:26.534Z,2.85
2022-10-28T12:10:09.518Z,2.90
2022-10-28T12:12:44.829Z,2.80
2022-10-28T12:15:19.828Z,3.30
2022-10-28T12:17:54.100Z,2.47
2022-10-28T12:20:25.447Z,2.83
2022-10-28T12:22:56.611Z,2.75
2022-10-28T12:25:27.948Z,2.40
2022-10-28T12:30:29.581Z,9.65
2022-10-28T12:33:01.932Z,3.42
2022-10-28T12:35:32.766Z,2.75
2022-10-28T12:38:04.925Z,2.35
2022-10-28T12:40:37.300Z,2.72
2022-10-28T12:43:11.426Z,3.10
2022-10-28T12:45:40.368Z,2.55
2022-10-28T12:48:17.852Z,4.15
2022-10-28T12:50:51.134Z,2.28
2022-10-28T12:53:25.975Z,2.47
2022-10-28T12:55:58.676Z,2.72
2022-10-28T12:58:32.325Z,2.20
2022-10-28T13:01:03.042Z,2.50
2022-10-28T13:03:33.543Z,2.72
2022-10-28T13:06:24.595Z,2.55
2022-10-28T13:11:49.997Z,2.70
2022-10-28T13:14:33.937Z,3.20
2022-10-28T13:17:17.339Z,2.70
2022-10-28T13:19:56.900Z,2.80
2022-10-28T13:22:39.464Z,2.63
2022-10-28T13:25:23.893Z,2.80
2022-10-28T13:27:57.237Z,2.83
2022-10-28T13:30:32.343Z,2.63
2022-10-28T13:33:07.415Z,2.55
2022-10-28T13:35:36.213Z,2.40
2022-10-28T13:38:11.060Z,2.92
2022-10-28T13:41:12.892Z,2.63
2022-10-28T13:47:05.956Z,2.30
2022-10-28T13:49:35.111Z,2.63
2022-10-28T13:52:05.491Z,2.63
2022-10-28T13:54:37.590Z,3.10
2022-10-28T13:57:10.169Z,3.95
2022-10-28T13:59:51.536Z,3.70
2022-10-28T14:02:34.960Z,4.50
2022-10-28T14:05:08.415Z,3.67
2022-10-28T14:07:38.353Z,3.42
2022-10-28T14:10:24.834Z,4.97
2022-10-28T14:12:55.727Z,4.85
2022-10-28T14:15:29.086Z,3.60
2022-10-28T14:18:10.184Z,3.95
2022-10-28T14:20:58.866Z,3.70
2022-10-28T14:23:51.618Z,3.70
2022-10-28T14:26:19.701Z,3.55
2022-10-28T14:28:53.290Z,3.35
2022-10-28T14:31:53.935Z,3.63
2022-10-28T14:34:41.510Z,3.70
2022-10-28T14:37:46.574Z,3.85
2022-10-28T14:40:24.624Z,3.58
2022-10-28T14:43:34.209Z,3.95
2022-10-28T14:46:10.928Z,3.70
2022-10-28T14:48:49.167Z,3.90
2022-10-28T14:51:21.241Z,4.00
2022-10-28T14:53:49.760Z,4.10
2022-10-28T14:58:59.445Z,4.20
2022-10-28T15:01:29.972Z,4.18
2022-10-28T15:04:01.651Z,4.60
2022-10-28T15:06:36.367Z,4.60
2022-10-28T15:09:08.031Z,5.07
2022-10-28T15:11:36.391Z,5.45
2022-10-28T15:14:26.040Z,5.32
2022-10-28T15:16:54.838Z,5.15
2022-10-28T15:19:26.081Z,5.20
2022-10-28T15:22:19.215Z,5.25
2022-10-28T15:24:58.169Z,4.93
2022-10-28T15:27:28.936Z,4.82
2022-10-28T15:29:57.962Z,5.10
2022-10-28T15:32:31.922Z,6.10
2022-10-28T15:35:00.848Z,5.45
2022-10-28T15:37:31.510Z,6.30
2022-10-28T15:40:21.499Z,6.33
2022-10-28T15:42:55.124Z,8.05
2022-10-28T15:45:26.439Z,7.25
2022-10-28T15:47:55.815Z,6.80
2022-10-28T15:50:30.881Z,6.60
2022-10-28T15:53:32.799Z,8.18
2022-10-28T15:58:40.305Z,11.68
2022-10-28T16:01:10.798Z,10.93
2022-10-28T16:03:44.000Z,8.60
2022-10-28T16:06:24.707Z,9.38
2022-10-28T16:09:06.665Z,8.40
2022-10-28T16:11:39.520Z,9.38
2022-10-28T16:14:30.840Z,9.02
2022-10-28T16:19:44.176Z,10.40
2022-10-28T16:22:13.528Z,8.82
2022-10-28T16:24:43.744Z,10.13
2022-10-28T16:27:18.177Z,9.82
2022-10-28T16:29:46.640Z,10.57
2022-10-28T16:32:15.856Z,11.02
2022-10-28T16:34:46.965Z,10.82
2022-10-28T16:37:21.716Z,12.60
2022-10-28T16:39:51.810Z,11.18
2022-10-28T16:42:20.791Z,13.65
2022-10-28T16:44:49.417Z,13.35
2022-10-28T16:47:19.351Z,14.75
2022-10-28T16:49:54.478Z,15.35
2022-10-28T16:52:27.565Z,14.80
2022-10-28T16:54:58.348Z,13.82
2022-10-28T16:57:30.732Z,16.40
2022-10-28T17:00:00.790Z,15.30
2022-10-28T17:02:36.002Z,16.52
2022-10-28T17:05:07.927Z,17.15
2022-10-28T17:07:41.631Z,19.90
2022-10-28T17:10:22.876Z,23.58
2022-10-28T17:13:01.839Z,22.60
2022-10-28T17:15:32.963Z,20.25
2022-10-28T17:18:01.777Z,17.92
2022-10-28T17:20:31.400Z,17.38
2022-10-28T17:23:07.857Z,18.50
2022-10-28T17:26:01.642Z,18.92
2022-10-28T17:28:32.924Z,19.25
2022-10-28T17:31:06.150Z,15.32
2022-10-28T17:33:34.575Z,16.63
2022-10-28T17:36:03.341Z,17.48
2022-10-28T17:38:31.612Z,15.75
2022-10-28T17:41:01.493Z,16.15
2022-10-28T17:43:29.722Z,13.27
2022-10-28T17:46:04.739Z,14.68
2022-10-28T17:48:33.135Z,16.42
2022-10-28T17:51:01.569Z,17.52
2022-10-28T17:53:30.068Z,18.17
2022-10-28T17:55:58.942Z,15.52
2022-10-28T17:58:28.864Z,15.80
2022-10-28T18:00:58.318Z,16.30
2022-10-28T18:03:27.053Z,15.05
2022-10-28T18:05:55.527Z,17.95
2022-10-28T18:08:23.812Z,18.00
2022-10-28T18:10:53.000Z,18.27
2022-10-28T18:13:22.036Z,21.17
2022-10-28T18:15:51.706Z,22.88
2022-10-28T18:18:19.977Z,20.45
2022-10-28T18:20:53.687Z,23.35
2022-10-28T18:23:21.923Z,23.98
2022-10-28T18:25:58.919Z,20.70
2022-10-28T18:28:27.120Z,19.08
2022-10-28T18:30:56.993Z,21.85
2022-10-28T18:33:25.218Z,20.00
2022-10-28T18:35:53.644Z,22.25
2022-10-28T18:38:21.826Z,20.25
2022-10-28T18:40:50.067Z,21.23
2022-10-28T18:43:20.067Z,22.17
2022-10-28T18:45:48.753Z,21.25
2022-10-28T18:48:18.604Z,19.17
2022-10-28T18:50:56.421Z,19.98
2022-10-28T18:53:24.886Z,20.35
2022-10-28T18:55:53.016Z,21.02
2022-10-28T18:58:21.093Z,19.60
2022-10-28T19:00:49.629Z,18.25
2022-10-28T19:03:24.027Z,17.75
2022-10-28T19:05:52.441Z,18.33
2022-10-28T19:08:21.518Z,20.50
2022-10-28T19:10:56.274Z,20.10
2022-10-28T19:13:24.512Z,19.00
2022-10-28T19:15:53.037Z,18.35
2022-10-28T19:18:22.525Z,16.10
2022-10-28T19:20:50.906Z,14.63
2022-10-28T19:23:19.017Z,17.13
2022-10-28T19:25:55.007Z,17.40
2022-10-28T19:28:23.292Z,17.33
2022-10-28T19:30:51.767Z,17.70
2022-10-28T19:33:20.262Z,18.00
2022-10-28T19:35:49.874Z,16.17
2022-10-28T19:38:18.443Z,15.50
2022-10-28T19:40:46.628Z,15.60
2022-10-28T19:43:14.893Z,15.57
2022-10-28T19:45:43.163Z,15.55
2022-10-28T19:48:13.312Z,14.90
2022-10-28T19:50:51.405Z,16.05
2022-10-28T19:53:19.823Z,15.63
2022-10-28T19:55:48.114Z,16.00
2022-10-28T19:58:16.526Z,15.07
2022-10-28T20:00:44.698Z,15.30
2022-10-28T20:03:13.631Z,14.80
2022-10-28T20:05:42.288Z,13.85
2022-10-28T20:08:12.230Z,14.88
2022-10-28T20:10:41.619Z,13.20
2022-10-28T20:13:10.259Z,13.23
2022-10-28T20:15:38.548Z,13.65
2022-10-28T20:18:07.161Z,12.27
2022-10-28T20:20:36.155Z,12.07
2022-10-28T20:23:04.536Z,11.48
2022-10-28T20:25:34.166Z,12.35
2022-10-28T20:28:02.332Z,12.25
2022-10-28T20:30:30.686Z,12.45
2022-10-28T20:32:58.880Z,11.88
2022-10-28T20:35:27.047Z,13.73
2022-10-28T20:37:55.678Z,13.43
2022-10-28T20:40:24.015Z,13.50
2022-10-28T20:42:54.163Z,13.50
2022-10-28T20:45:22.637Z,14.07
2022-10-28T20:47:50.945Z,14.20
2022-10-28T20:50:19.716Z,16.35
2022-10-28T20:52:48.141Z,16.52
2022-10-28T20:55:16.369Z,17.05
2022-10-28T20:57:44.839Z,18.92
2022-10-28T21:00:15.416Z,18.23
2022-10-28T21:02:44.050Z,16.95
2022-10-28T21:05:12.264Z,19.65
2022-10-28T21:07:40.653Z,18.38
2022-10-28T21:10:10.316Z,18.27
2022-10-28T21:12:38.615Z,17.50
2022-10-28T21:15:07.715Z,17.60
2022-10-28T21:17:37.632Z,17.98
2022-10-28T21:20:07.184Z,18.00
2022-10-28T21:22:35.617Z,17.55
2022-10-28T21:25:04.047Z,17.55
2022-10-28T21:27:34.119Z,16.85
2022-10-28T21:30:02.343Z,15.90
2022-10-28T21:32:30.829Z,17.17
2022-10-28T21:35:00.424Z,17.02
2022-10-28T21:37:28.823Z,16.67
2022-10-28T21:40:00.959Z,17.25
2022-10-28T21:42:29.621Z,18.38
2022-10-28T21:44:58.062Z,19.05
2022-10-28T21:47:26.664Z,17.50
2022-10-28T21:49:54.902Z,18.00
2022-10-28T21:52:24.629Z,18.17
2022-10-28T21:54:52.837Z,16.38
2022-10-28T21:57:21.107Z,14.98
2022-10-28T21:59:50.052Z,15.50
2022-10-28T22:02:18.693Z,14.93
2022-10-28T22:04:47.307Z,17.10
2022-10-28T22:07:15.393Z,15.38
2022-10-28T22:09:45.049Z,16.17
2022-10-28T22:12:13.120Z,14.88
2022-10-28T22:14:41.363Z,14.32
2022-10-28T22:17:09.509Z,14.73
2022-10-28T22:19:37.606Z,12.18
2022-10-28T22:22:06.299Z,13.25
2022-10-28T22:24:34.366Z,11.75
2022-10-28T22:27:04.213Z,12.68
2022-10-28T22:29:32.522Z,12.48
2022-10-28T22:32:00.618Z,12.95
2022-10-28T22:34:28.979Z,12.70
2022-10-28T22:36:57.167Z,15.48
2022-10-28T22:39:25.416Z,14.57
2022-10-28T22:41:53.788Z,14.57
2022-10-28T22:44:23.335Z,15.50
2022-10-28T22:46:51.700Z,15.70
2022-10-28T22:49:22.511Z,17.02
2022-10-28T22:51:50.805Z,17.10
2022-10-28T22:54:19.623Z,16.40
2022-10-28T22:56:47.899Z,17.40
2022-10-28T22:59:15.977Z,16.85
2022-10-28T23:01:45.668Z,14.52
2022-10-28T23:04:14.028Z,14.52
2022-10-28T23:06:42.321Z,14.25
2022-10-28T23:09:10.395Z,14.85
2022-10-28T23:11:38.707Z,13.70
2022-10-28T23:14:07.066Z,14.52
2022-10-28T23:16:35.402Z,14.00
2022-10-28T23:19:04.887Z,13.90
2022-10-28T23:21:32.985Z,15.02
2022-10-28T23:24:02.656Z,15.63
2022-10-28T23:26:31.136Z,14.52
2022-10-28T23:29:00.692Z,15.90
2022-10-28T23:31:29.395Z,16.63
2022-10-28T23:33:59.179Z,17.05
2022-10-28T23:36:28.708Z,17.00
2022-10-28T23:38:57.830Z,18.92
2022-10-28T23:41:25.903Z,17.88
2022-10-28T23:43:53.985Z,17.52
2022-10-28T23:46:22.384Z,16.13
2022-10-28T23:48:50.466Z,15.90
2022-10-28T23:51:19.418Z,16.35
2022-10-28T23:53:49.438Z,16.10
2022-10-28T23:56:17.641Z,16.10
2022-10-28T23:58:46.004Z,14.82
